sensor_id;sensor_type;location;lat;lon;timestamp;P1;durP1;ratioP1;P2;durP2;ratioP2
11100;SDS011;5604;50.722;7.078;2022-08-11T00:02:22;293.47;;;282.30;;
11100;SDS011;5604;50.722;7.078;2022-08-11T00:04:56;283.00;;;272.07;;
11100;SDS011;5604;50.722;7.078;2022-08-11T00:07:33;284.83;;;273.93;;
11100;SDS011;5604;50.722;7.078;2022-08-11T00:10:09;289.50;;;278.43;;
11100;SDS011;5604;50.722;7.078;2022-08-11T00:12:39;284.07;;;273.00;;
11100;SDS011;5604;50.722;7.078;2022-08-11T00:15:09;279.87;;;269.17;;
11100;SDS011;5604;50.722;7.078;2022-08-11T00:17:38;287.70;;;276.53;;
11100;SDS011;5604;50.722;7.078;2022-08-11T00:20:08;282.00;;;271.13;;
11100;SDS011;5604;50.722;7.078;2022-08-11T00:22:45;274.60;;;264.13;;
11100;SDS011;5604;50.722;7.078;2022-08-11T00:25:15;286.33;;;275.27;;
11100;SDS011;5604;50.722;7.078;2022-08-11T00:27:44;278.73;;;267.93;;
11100;SDS011;5604;50.722;7.078;2022-08-11T00:30:14;279.17;;;268.43;;
11100;SDS011;5604;50.722;7.078;2022-08-11T00:32:44;279.67;;;269.00;;
11100;SDS011;5604;50.722;7.078;2022-08-11T00:35:14;274.73;;;263.80;;
11100;SDS011;5604;50.722;7.078;2022-08-11T00:38:05;276.27;;;265.67;;
11100;SDS011;5604;50.722;7.078;2022-08-11T00:40:36;277.27;;;266.60;;
11100;SDS011;5604;50.722;7.078;2022-08-11T00:43:12;277.10;;;266.30;;
11100;SDS011;5604;50.722;7.078;2022-08-11T00:45:52;277.37;;;266.77;;
11100;SDS011;5604;50.722;7.078;2022-08-11T00:48:35;274.80;;;264.20;;
11100;SDS011;5604;50.722;7.078;2022-08-11T00:51:09;274.30;;;263.80;;
11100;SDS011;5604;50.722;7.078;2022-08-11T00:53:45;272.93;;;262.57;;
11100;SDS011;5604;50.722;7.078;2022-08-11T01:00:03;269.67;;;259.37;;
11100;SDS011;5604;50.722;7.078;2022-08-11T01:02:52;268.07;;;257.67;;
11100;SDS011;5604;50.722;7.078;2022-08-11T01:05:55;268.37;;;258.17;;
11100;SDS011;5604;50.722;7.078;2022-08-11T01:24:44;264.57;;;254.53;;
11100;SDS011;5604;50.722;7.078;2022-08-11T01:27:27;268.20;;;257.97;;
11100;SDS011;5604;50.722;7.078;2022-08-11T01:30:24;259.73;;;249.83;;
11100;SDS011;5604;50.722;7.078;2022-08-11T01:36:53;256.37;;;246.43;;
11100;SDS011;5604;50.722;7.078;2022-08-11T01:39:48;266.13;;;256.03;;
11100;SDS011;5604;50.722;7.078;2022-08-11T01:45:56;258.50;;;248.57;;
11100;SDS011;5604;50.722;7.078;2022-08-11T01:48:31;262.80;;;252.77;;
11100;SDS011;5604;50.722;7.078;2022-08-11T01:51:21;265.00;;;255.00;;
11100;SDS011;5604;50.722;7.078;2022-08-11T01:53:59;261.57;;;251.70;;
11100;SDS011;5604;50.722;7.078;2022-08-11T01:56:48;262.83;;;252.50;;
11100;SDS011;5604;50.722;7.078;2022-08-11T01:59:25;253.63;;;243.83;;
11100;SDS011;5604;50.722;7.078;2022-08-11T02:02:10;252.53;;;243.03;;
11100;SDS011;5604;50.722;7.078;2022-08-11T02:07:59;252.03;;;242.43;;
11100;SDS011;5604;50.722;7.078;2022-08-11T02:10:38;255.53;;;245.73;;
11100;SDS011;5604;50.722;7.078;2022-08-11T02:13:35;249.03;;;239.53;;
11100;SDS011;5604;50.722;7.078;2022-08-11T02:16:15;251.90;;;242.30;;
11100;SDS011;5604;50.722;7.078;2022-08-11T02:18:46;255.20;;;245.47;;
11100;SDS011;5604;50.722;7.078;2022-08-11T02:21:37;256.27;;;246.57;;
11100;SDS011;5604;50.722;7.078;2022-08-11T02:24:33;256.07;;;246.30;;
11100;SDS011;5604;50.722;7.078;2022-08-11T02:27:05;255.27;;;245.63;;
11100;SDS011;5604;50.722;7.078;2022-08-11T02:29:37;253.30;;;243.73;;
11100;SDS011;5604;50.722;7.078;2022-08-11T02:32:14;248.30;;;238.73;;
11100;SDS011;5604;50.722;7.078;2022-08-11T02:35:09;247.87;;;238.43;;
11100;SDS011;5604;50.722;7.078;2022-08-11T02:37:44;249.67;;;240.13;;
11100;SDS011;5604;50.722;7.078;2022-08-11T02:40:20;250.83;;;241.23;;
11100;SDS011;5604;50.722;7.078;2022-08-11T02:42:56;247.13;;;237.80;;
11100;SDS011;5604;50.722;7.078;2022-08-11T02:45:34;249.27;;;239.83;;
11100;SDS011;5604;50.722;7.078;2022-08-11T02:48:10;250.53;;;241.00;;
11100;SDS011;5604;50.722;7.078;2022-08-11T02:51:05;246.47;;;237.13;;
11100;SDS011;5604;50.722;7.078;2022-08-11T02:53:49;248.80;;;239.33;;
11100;SDS011;5604;50.722;7.078;2022-08-11T02:56:26;242.60;;;233.43;;
11100;SDS011;5604;50.722;7.078;2022-08-11T02:59:05;240.30;;;231.20;;
11100;SDS011;5604;50.722;7.078;2022-08-11T03:01:53;240.83;;;231.73;;
11100;SDS011;5604;50.722;7.078;2022-08-11T03:04:34;237.53;;;228.50;;
11100;SDS011;5604;50.722;7.078;2022-08-11T03:07:06;245.87;;;236.43;;
11100;SDS011;5604;50.722;7.078;2022-08-11T03:09:57;241.77;;;232.67;;
11100;SDS011;5604;50.722;7.078;2022-08-11T03:12:32;242.63;;;233.43;;
11100;SDS011;5604;50.722;7.078;2022-08-11T03:15:27;234.33;;;225.50;;
11100;SDS011;5604;50.722;7.078;2022-08-11T03:18:14;241.97;;;232.60;;
11100;SDS011;5604;50.722;7.078;2022-08-11T03:20:53;245.40;;;236.10;;
11100;SDS011;5604;50.722;7.078;2022-08-11T03:23:26;242.40;;;233.20;;
11100;SDS011;5604;50.722;7.078;2022-08-11T03:25:57;239.70;;;230.40;;
11100;SDS011;5604;50.722;7.078;2022-08-11T03:28:31;232.23;;;223.40;;
11100;SDS011;5604;50.722;7.078;2022-08-11T03:31:07;234.27;;;225.17;;
11100;SDS011;5604;50.722;7.078;2022-08-11T03:33:43;239.63;;;230.50;;
11100;SDS011;5604;50.722;7.078;2022-08-11T03:40:17;238.53;;;229.43;;
11100;SDS011;5604;50.722;7.078;2022-08-11T03:43:07;232.40;;;223.20;;
11100;SDS011;5604;50.722;7.078;2022-08-11T03:45:43;235.27;;;226.17;;
11100;SDS011;5604;50.722;7.078;2022-08-11T03:48:27;237.70;;;228.47;;
11100;SDS011;5604;50.722;7.078;2022-08-11T03:51:02;237.70;;;228.63;;
11100;SDS011;5604;50.722;7.078;2022-08-11T03:53:39;236.57;;;227.57;;
11100;SDS011;5604;50.722;7.078;2022-08-11T03:56:20;233.37;;;224.13;;
11100;SDS011;5604;50.722;7.078;2022-08-11T03:59:16;240.07;;;230.83;;
11100;SDS011;5604;50.722;7.078;2022-08-11T04:02:07;238.63;;;229.60;;
11100;SDS011;5604;50.722;7.078;2022-08-11T04:10:52;236.43;;;227.07;;
11100;SDS011;5604;50.722;7.078;2022-08-11T04:16:45;239.57;;;230.33;;
11100;SDS011;5604;50.722;7.078;2022-08-11T04:19:20;247.63;;;238.23;;
11100;SDS011;5604;50.722;7.078;2022-08-11T04:22:20;249.47;;;239.97;;
11100;SDS011;5604;50.722;7.078;2022-08-11T04:24:57;261.73;;;251.73;;
11100;SDS011;5604;50.722;7.078;2022-08-11T04:28:09;259.23;;;249.30;;
11100;SDS011;5604;50.722;7.078;2022-08-11T04:30:58;259.50;;;249.63;;
11100;SDS011;5604;50.722;7.078;2022-08-11T04:33:40;255.30;;;245.60;;
11100;SDS011;5604;50.722;7.078;2022-08-11T04:39:38;258.47;;;248.57;;
11100;SDS011;5604;50.722;7.078;2022-08-11T04:42:25;262.73;;;252.70;;
11100;SDS011;5604;50.722;7.078;2022-08-11T04:45:38;255.67;;;245.57;;
11100;SDS011;5604;50.722;7.078;2022-08-11T04:48:22;255.17;;;245.30;;
11100;SDS011;5604;50.722;7.078;2022-08-11T04:51:29;257.47;;;247.40;;
11100;SDS011;5604;50.722;7.078;2022-08-11T04:54:30;253.63;;;243.77;;
11100;SDS011;5604;50.722;7.078;2022-08-11T04:57:30;256.87;;;246.83;;
11100;SDS011;5604;50.722;7.078;2022-08-11T05:00:19;260.23;;;250.00;;
11100;SDS011;5604;50.722;7.078;2022-08-11T05:03:17;258.20;;;248.27;;
11100;SDS011;5604;50.722;7.078;2022-08-11T05:06:29;262.37;;;252.27;;
11100;SDS011;5604;50.722;7.078;2022-08-11T05:09:19;262.27;;;252.13;;
11100;SDS011;5604;50.722;7.078;2022-08-11T05:12:10;271.90;;;261.53;;
11100;SDS011;5604;50.722;7.078;2022-08-11T05:14:47;248.50;;;239.07;;
11100;SDS011;5604;50.722;7.078;2022-08-11T05:17:36;246.83;;;237.43;;
11100;SDS011;5604;50.722;7.078;2022-08-11T05:20:23;239.00;;;229.57;;
11100;SDS011;5604;50.722;7.078;2022-08-11T05:23:15;242.23;;;232.73;;
11100;SDS011;5604;50.722;7.078;2022-08-11T05:26:03;238.30;;;229.10;;
11100;SDS011;5604;50.722;7.078;2022-08-11T05:32:23;248.80;;;239.30;;
11100;SDS011;5604;50.722;7.078;2022-08-11T05:35:09;246.40;;;236.93;;
11100;SDS011;5604;50.722;7.078;2022-08-11T05:37:58;258.50;;;248.60;;
11100;SDS011;5604;50.722;7.078;2022-08-11T05:40:46;253.60;;;243.87;;
11100;SDS011;5604;50.722;7.078;2022-08-11T05:43:33;266.83;;;256.43;;
11100;SDS011;5604;50.722;7.078;2022-08-11T05:46:40;254.33;;;244.43;;
11100;SDS011;5604;50.722;7.078;2022-08-11T05:49:28;264.10;;;253.67;;
11100;SDS011;5604;50.722;7.078;2022-08-11T05:52:15;259.77;;;249.50;;
11100;SDS011;5604;50.722;7.078;2022-08-11T05:55:09;270.73;;;260.47;;
11100;SDS011;5604;50.722;7.078;2022-08-11T05:57:55;264.10;;;253.80;;
11100;SDS011;5604;50.722;7.078;2022-08-11T06:00:24;265.23;;;254.50;;
11100;SDS011;5604;50.722;7.078;2022-08-11T06:02:55;262.37;;;252.23;;
11100;SDS011;5604;50.722;7.078;2022-08-11T06:05:30;269.53;;;259.03;;
11100;SDS011;5604;50.722;7.078;2022-08-11T06:08:09;260.90;;;250.73;;
11100;SDS011;5604;50.722;7.078;2022-08-11T06:10:39;256.97;;;247.07;;
11100;SDS011;5604;50.722;7.078;2022-08-11T06:13:09;254.17;;;243.97;;
11100;SDS011;5604;50.722;7.078;2022-08-11T06:15:42;259.90;;;249.47;;
11100;SDS011;5604;50.722;7.078;2022-08-11T06:18:13;249.23;;;239.63;;
11100;SDS011;5604;50.722;7.078;2022-08-11T06:20:46;253.97;;;244.07;;
11100;SDS011;5604;50.722;7.078;2022-08-11T06:23:15;266.67;;;256.17;;
11100;SDS011;5604;50.722;7.078;2022-08-11T06:25:45;250.83;;;241.10;;
11100;SDS011;5604;50.722;7.078;2022-08-11T06:28:14;256.67;;;246.70;;
11100;SDS011;5604;50.722;7.078;2022-08-11T06:30:46;253.77;;;243.83;;
11100;SDS011;5604;50.722;7.078;2022-08-11T06:33:17;259.43;;;249.33;;
11100;SDS011;5604;50.722;7.078;2022-08-11T06:35:50;272.63;;;261.80;;
11100;SDS011;5604;50.722;7.078;2022-08-11T06:38:30;270.60;;;260.03;;
11100;SDS011;5604;50.722;7.078;2022-08-11T06:41:20;274.30;;;263.50;;
11100;SDS011;5604;50.722;7.078;2022-08-11T06:44:03;275.33;;;264.60;;
11100;SDS011;5604;50.722;7.078;2022-08-11T06:46:36;267.80;;;257.40;;
11100;SDS011;5604;50.722;7.078;2022-08-11T06:49:07;268.43;;;258.23;;
11100;SDS011;5604;50.722;7.078;2022-08-11T06:51:58;270.17;;;259.77;;
11100;SDS011;5604;50.722;7.078;2022-08-11T06:54:28;282.00;;;271.20;;
11100;SDS011;5604;50.722;7.078;2022-08-11T06:56:59;283.87;;;273.07;;
11100;SDS011;5604;50.722;7.078;2022-08-11T07:00:01;282.00;;;271.10;;
11100;SDS011;5604;50.722;7.078;2022-08-11T07:02:50;282.00;;;271.00;;
11100;SDS011;5604;50.722;7.078;2022-08-11T07:05:22;288.83;;;277.73;;
11100;SDS011;5604;50.722;7.078;2022-08-11T07:11:11;285.10;;;274.03;;
11100;SDS011;5604;50.722;7.078;2022-08-11T07:14:04;289.27;;;277.60;;
11100;SDS011;5604;50.722;7.078;2022-08-11T07:16:51;283.77;;;272.73;;
11100;SDS011;5604;50.722;7.078;2022-08-11T07:19:21;292.07;;;280.27;;
11100;SDS011;5604;50.722;7.078;2022-08-11T07:22:12;306.93;;;294.87;;
11100;SDS011;5604;50.722;7.078;2022-08-11T07:24:56;288.40;;;277.30;;
11100;SDS011;5604;50.722;7.078;2022-08-11T07:27:45;285.47;;;274.50;;
11100;SDS011;5604;50.722;7.078;2022-08-11T07:30:33;289.47;;;278.10;;
11100;SDS011;5604;50.722;7.078;2022-08-11T07:33:05;286.80;;;275.73;;
11100;SDS011;5604;50.722;7.078;2022-08-11T07:35:34;295.00;;;283.63;;
11100;SDS011;5604;50.722;7.078;2022-08-11T07:38:07;297.50;;;286.07;;
11100;SDS011;5604;50.722;7.078;2022-08-11T07:40:41;289.87;;;278.63;;
11100;SDS011;5604;50.722;7.078;2022-08-11T07:43:11;301.27;;;288.83;;
11100;SDS011;5604;50.722;7.078;2022-08-11T07:45:41;295.30;;;283.77;;
11100;SDS011;5604;50.722;7.078;2022-08-11T07:48:35;292.20;;;280.73;;
11100;SDS011;5604;50.722;7.078;2022-08-11T07:51:21;303.60;;;291.83;;
11100;SDS011;5604;50.722;7.078;2022-08-11T07:54:08;297.03;;;285.33;;
11100;SDS011;5604;50.722;7.078;2022-08-11T07:56:43;296.47;;;285.00;;
11100;SDS011;5604;50.722;7.078;2022-08-11T07:59:21;296.97;;;285.37;;
11100;SDS011;5604;50.722;7.078;2022-08-11T08:02:37;322.10;;;309.50;;
11100;SDS011;5604;50.722;7.078;2022-08-11T08:05:24;314.93;;;302.53;;
11100;SDS011;5604;50.722;7.078;2022-08-11T08:08:10;312.20;;;299.70;;
11100;SDS011;5604;50.722;7.078;2022-08-11T08:10:59;322.67;;;309.93;;
11100;SDS011;5604;50.722;7.078;2022-08-11T08:13:52;328.97;;;316.13;;
11100;SDS011;5604;50.722;7.078;2022-08-11T08:16:38;341.33;;;327.57;;
11100;SDS011;5604;50.722;7.078;2022-08-11T08:19:24;342.10;;;328.60;;
11100;SDS011;5604;50.722;7.078;2022-08-11T08:21:53;359.17;;;344.87;;
11100;SDS011;5604;50.722;7.078;2022-08-11T08:24:41;348.83;;;335.17;;
11100;SDS011;5604;50.722;7.078;2022-08-11T08:27:11;353.17;;;338.97;;
11100;SDS011;5604;50.722;7.078;2022-08-11T08:29:40;351.77;;;337.57;;
11100;SDS011;5604;50.722;7.078;2022-08-11T08:32:26;356.57;;;342.23;;
11100;SDS011;5604;50.722;7.078;2022-08-11T08:34:55;371.47;;;356.57;;
11100;SDS011;5604;50.722;7.078;2022-08-11T08:37:24;363.20;;;348.77;;
11100;SDS011;5604;50.722;7.078;2022-08-11T08:40:13;386.03;;;370.53;;
11100;SDS011;5604;50.722;7.078;2022-08-11T08:42:45;392.90;;;376.93;;
11100;SDS011;5604;50.722;7.078;2022-08-11T08:45:17;398.37;;;381.97;;
11100;SDS011;5604;50.722;7.078;2022-08-11T08:47:46;393.53;;;377.43;;
11100;SDS011;5604;50.722;7.078;2022-08-11T08:50:20;397.63;;;381.43;;
11100;SDS011;5604;50.722;7.078;2022-08-11T08:52:55;402.90;;;386.47;;
11100;SDS011;5604;50.722;7.078;2022-08-11T08:55:26;403.70;;;387.03;;
11100;SDS011;5604;50.722;7.078;2022-08-11T08:57:57;413.67;;;396.67;;
11100;SDS011;5604;50.722;7.078;2022-08-11T09:00:27;429.17;;;411.43;;
11100;SDS011;5604;50.722;7.078;2022-08-11T09:03:05;406.27;;;389.80;;
11100;SDS011;5604;50.722;7.078;2022-08-11T09:05:54;403.13;;;386.70;;
11100;SDS011;5604;50.722;7.078;2022-08-11T09:08:23;429.67;;;411.97;;
11100;SDS011;5604;50.722;7.078;2022-08-11T09:10:54;441.23;;;422.67;;
11100;SDS011;5604;50.722;7.078;2022-08-11T09:13:41;431.97;;;413.90;;
11100;SDS011;5604;50.722;7.078;2022-08-11T09:16:10;449.33;;;430.63;;
11100;SDS011;5604;50.722;7.078;2022-08-11T09:18:38;421.10;;;403.57;;
11100;SDS011;5604;50.722;7.078;2022-08-11T09:21:10;452.03;;;433.17;;
11100;SDS011;5604;50.722;7.078;2022-08-11T09:24:00;444.23;;;425.67;;
11100;SDS011;5604;50.722;7.078;2022-08-11T09:26:51;439.90;;;421.63;;
11100;SDS011;5604;50.722;7.078;2022-08-11T09:29:28;416.60;;;399.57;;
11100;SDS011;5604;50.722;7.078;2022-08-11T09:31:57;409.03;;;392.43;;
11100;SDS011;5604;50.722;7.078;2022-08-11T09:34:25;456.17;;;437.07;;
11100;SDS011;5604;50.722;7.078;2022-08-11T09:36:54;464.03;;;444.50;;
11100;SDS011;5604;50.722;7.078;2022-08-11T09:40:08;444.23;;;425.47;;
11100;SDS011;5604;50.722;7.078;2022-08-11T09:42:56;446.07;;;427.27;;
11100;SDS011;5604;50.722;7.078;2022-08-11T09:45:45;455.27;;;435.93;;
11100;SDS011;5604;50.722;7.078;2022-08-11T09:48:17;457.93;;;438.43;;
11100;SDS011;5604;50.722;7.078;2022-08-11T09:50:46;452.17;;;433.27;;
11100;SDS011;5604;50.722;7.078;2022-08-11T09:53:15;465.87;;;445.87;;
11100;SDS011;5604;50.722;7.078;2022-08-11T09:56:04;422.13;;;404.77;;
11100;SDS011;5604;50.722;7.078;2022-08-11T09:58:48;448.00;;;429.17;;
11100;SDS011;5604;50.722;7.078;2022-08-11T10:01:19;476.67;;;456.27;;
11100;SDS011;5604;50.722;7.078;2022-08-11T10:03:58;444.03;;;425.50;;
11100;SDS011;5604;50.722;7.078;2022-08-11T10:06:30;447.60;;;428.97;;
11100;SDS011;5604;50.722;7.078;2022-08-11T10:09:20;437.23;;;418.70;;
11100;SDS011;5604;50.722;7.078;2022-08-11T10:11:52;446.53;;;427.67;;
11100;SDS011;5604;50.722;7.078;2022-08-11T10:14:24;446.00;;;427.27;;
11100;SDS011;5604;50.722;7.078;2022-08-11T10:17:12;442.53;;;424.03;;
11100;SDS011;5604;50.722;7.078;2022-08-11T10:19:42;452.37;;;433.33;;
11100;SDS011;5604;50.722;7.078;2022-08-11T10:22:31;464.47;;;444.53;;
11100;SDS011;5604;50.722;7.078;2022-08-11T10:25:19;456.67;;;437.27;;
11100;SDS011;5604;50.722;7.078;2022-08-11T10:28:06;459.20;;;439.50;;
11100;SDS011;5604;50.722;7.078;2022-08-11T10:30:55;454.97;;;435.50;;
11100;SDS011;5604;50.722;7.078;2022-08-11T10:33:44;454.10;;;435.03;;
11100;SDS011;5604;50.722;7.078;2022-08-11T10:36:30;475.60;;;455.37;;
11100;SDS011;5604;50.722;7.078;2022-08-11T10:39:00;467.43;;;447.43;;
11100;SDS011;5604;50.722;7.078;2022-08-11T10:41:29;467.23;;;447.33;;
11100;SDS011;5604;50.722;7.078;2022-08-11T10:44:36;458.33;;;438.83;;
11100;SDS011;5604;50.722;7.078;2022-08-11T10:47:05;482.27;;;461.70;;
11100;SDS011;5604;50.722;7.078;2022-08-11T10:49:53;472.07;;;451.90;;
11100;SDS011;5604;50.722;7.078;2022-08-11T10:52:36;459.77;;;440.50;;
11100;SDS011;5604;50.722;7.078;2022-08-11T10:55:22;467.57;;;447.67;;
11100;SDS011;5604;50.722;7.078;2022-08-11T10:58:08;449.80;;;430.53;;
11100;SDS011;5604;50.722;7.078;2022-08-11T11:00:54;452.70;;;433.60;;
11100;SDS011;5604;50.722;7.078;2022-08-11T11:03:24;464.17;;;444.73;;
11100;SDS011;5604;50.722;7.078;2022-08-11T11:05:55;471.40;;;451.47;;
11100;SDS011;5604;50.722;7.078;2022-08-11T11:08:47;472.33;;;452.20;;
11100;SDS011;5604;50.722;7.078;2022-08-11T11:11:30;482.47;;;461.77;;
11100;SDS011;5604;50.722;7.078;2022-08-11T11:14:19;473.53;;;453.33;;
11100;SDS011;5604;50.722;7.078;2022-08-11T11:17:14;466.70;;;446.80;;
11100;SDS011;5604;50.722;7.078;2022-08-11T11:20:05;475.77;;;455.60;;
11100;SDS011;5604;50.722;7.078;2022-08-11T11:22:57;467.07;;;447.10;;
11100;SDS011;5604;50.722;7.078;2022-08-11T11:25:34;466.37;;;446.27;;
11100;SDS011;5604;50.722;7.078;2022-08-11T11:28:11;485.07;;;464.27;;
11100;SDS011;5604;50.722;7.078;2022-08-11T11:30:50;483.30;;;462.47;;
11100;SDS011;5604;50.722;7.078;2022-08-11T11:33:27;464.90;;;445.37;;
11100;SDS011;5604;50.722;7.078;2022-08-11T11:36:27;478.73;;;458.23;;
11100;SDS011;5604;50.722;7.078;2022-08-11T11:39:02;466.53;;;446.90;;
11100;SDS011;5604;50.722;7.078;2022-08-11T11:41:31;481.77;;;461.03;;
11100;SDS011;5604;50.722;7.078;2022-08-11T11:43:59;480.30;;;459.60;;
11100;SDS011;5604;50.722;7.078;2022-08-11T11:46:28;458.20;;;438.47;;
11100;SDS011;5604;50.722;7.078;2022-08-11T11:49:04;468.27;;;448.23;;
11100;SDS011;5604;50.722;7.078;2022-08-11T11:51:42;484.10;;;463.03;;
11100;SDS011;5604;50.722;7.078;2022-08-11T11:54:16;472.97;;;452.57;;
11100;SDS011;5604;50.722;7.078;2022-08-11T11:56:46;495.07;;;473.93;;
11100;SDS011;5604;50.722;7.078;2022-08-11T11:59:16;495.57;;;474.20;;
11100;SDS011;5604;50.722;7.078;2022-08-11T12:02:02;489.53;;;468.53;;
11100;SDS011;5604;50.722;7.078;2022-08-11T12:04:38;489.83;;;468.93;;
11100;SDS011;5604;50.722;7.078;2022-08-11T12:07:08;497.37;;;471.37;;
11100;SDS011;5604;50.722;7.078;2022-08-11T12:09:56;516.47;;;475.90;;
11100;SDS011;5604;50.722;7.078;2022-08-11T12:12:24;465.20;;;445.13;;
11100;SDS011;5604;50.722;7.078;2022-08-11T12:15:10;487.63;;;465.67;;
11100;SDS011;5604;50.722;7.078;2022-08-11T12:17:38;474.30;;;453.90;;
11100;SDS011;5604;50.722;7.078;2022-08-11T12:20:07;487.27;;;466.27;;
11100;SDS011;5604;50.722;7.078;2022-08-11T12:22:56;479.17;;;458.73;;
11100;SDS011;5604;50.722;7.078;2022-08-11T12:25:43;484.30;;;463.63;;
11100;SDS011;5604;50.722;7.078;2022-08-11T12:28:49;473.90;;;453.53;;
11100;SDS011;5604;50.722;7.078;2022-08-11T12:31:17;482.03;;;461.27;;
11100;SDS011;5604;50.722;7.078;2022-08-11T12:33:48;488.30;;;467.27;;
11100;SDS011;5604;50.722;7.078;2022-08-11T12:36:16;488.07;;;466.90;;
11100;SDS011;5604;50.722;7.078;2022-08-11T12:38:46;489.03;;;468.07;;
11100;SDS011;5604;50.722;7.078;2022-08-11T12:41:19;471.03;;;450.90;;
11100;SDS011;5604;50.722;7.078;2022-08-11T12:44:06;488.47;;;467.50;;
11100;SDS011;5604;50.722;7.078;2022-08-11T12:47:02;485.70;;;464.57;;
11100;SDS011;5604;50.722;7.078;2022-08-11T12:49:31;483.83;;;462.87;;
11100;SDS011;5604;50.722;7.078;2022-08-11T12:52:21;489.53;;;468.30;;
11100;SDS011;5604;50.722;7.078;2022-08-11T12:54:54;493.03;;;471.83;;
11100;SDS011;5604;50.722;7.078;2022-08-11T12:57:28;494.00;;;472.73;;
11100;SDS011;5604;50.722;7.078;2022-08-11T13:00:17;492.03;;;470.63;;
11100;SDS011;5604;50.722;7.078;2022-08-11T13:03:04;483.83;;;462.87;;
11100;SDS011;5604;50.722;7.078;2022-08-11T13:05:52;500.13;;;478.07;;
11100;SDS011;5604;50.722;7.078;2022-08-11T13:08:22;510.43;;;488.13;;
11100;SDS011;5604;50.722;7.078;2022-08-11T13:10:52;493.80;;;472.60;;
11100;SDS011;5604;50.722;7.078;2022-08-11T13:13:41;480.50;;;459.23;;
11100;SDS011;5604;50.722;7.078;2022-08-11T13:16:21;496.20;;;474.57;;
11100;SDS011;5604;50.722;7.078;2022-08-11T13:18:50;484.87;;;463.83;;
11100;SDS011;5604;50.722;7.078;2022-08-11T13:21:19;486.13;;;464.97;;
11100;SDS011;5604;50.722;7.078;2022-08-11T13:23:48;479.23;;;458.13;;
11100;SDS011;5604;50.722;7.078;2022-08-11T13:26:28;491.40;;;469.27;;
11100;SDS011;5604;50.722;7.078;2022-08-11T13:29:18;485.17;;;464.20;;
11100;SDS011;5604;50.722;7.078;2022-08-11T13:31:47;493.30;;;471.83;;
11100;SDS011;5604;50.722;7.078;2022-08-11T13:34:17;488.33;;;467.20;;
11100;SDS011;5604;50.722;7.078;2022-08-11T13:36:46;489.50;;;468.33;;
11100;SDS011;5604;50.722;7.078;2022-08-11T13:39:18;483.97;;;462.93;;
11100;SDS011;5604;50.722;7.078;2022-08-11T13:41:50;498.90;;;477.37;;
11100;SDS011;5604;50.722;7.078;2022-08-11T13:44:20;489.90;;;468.80;;
11100;SDS011;5604;50.722;7.078;2022-08-11T13:46:55;505.43;;;483.27;;
11100;SDS011;5604;50.722;7.078;2022-08-11T13:49:26;493.23;;;471.53;;
11100;SDS011;5604;50.722;7.078;2022-08-11T13:51:55;485.70;;;464.40;;
11100;SDS011;5604;50.722;7.078;2022-08-11T13:54:25;473.37;;;452.73;;
11100;SDS011;5604;50.722;7.078;2022-08-11T13:56:56;491.57;;;470.40;;
11100;SDS011;5604;50.722;7.078;2022-08-11T13:59:29;488.73;;;467.63;;
11100;SDS011;5604;50.722;7.078;2022-08-11T14:02:11;489.67;;;468.30;;
11100;SDS011;5604;50.722;7.078;2022-08-11T14:04:56;486.93;;;466.07;;
11100;SDS011;5604;50.722;7.078;2022-08-11T14:07:26;493.47;;;471.90;;
11100;SDS011;5604;50.722;7.078;2022-08-11T14:10:00;480.07;;;459.40;;
11100;SDS011;5604;50.722;7.078;2022-08-11T14:12:32;496.53;;;475.10;;
11100;SDS011;5604;50.722;7.078;2022-08-11T14:15:20;481.80;;;460.97;;
11100;SDS011;5604;50.722;7.078;2022-08-11T14:17:51;482.07;;;461.17;;
11100;SDS011;5604;50.722;7.078;2022-08-11T14:20:22;483.63;;;462.20;;
11100;SDS011;5604;50.722;7.078;2022-08-11T14:23:10;482.60;;;461.60;;
11100;SDS011;5604;50.722;7.078;2022-08-11T14:25:39;485.00;;;463.83;;
11100;SDS011;5604;50.722;7.078;2022-08-11T14:28:30;487.10;;;466.20;;
11100;SDS011;5604;50.722;7.078;2022-08-11T14:31:13;493.13;;;471.67;;
11100;SDS011;5604;50.722;7.078;2022-08-11T14:34:03;495.20;;;473.63;;
11100;SDS011;5604;50.722;7.078;2022-08-11T14:36:59;488.23;;;467.20;;
11100;SDS011;5604;50.722;7.078;2022-08-11T14:39:30;495.13;;;473.77;;
11100;SDS011;5604;50.722;7.078;2022-08-11T14:42:02;483.53;;;462.47;;
11100;SDS011;5604;50.722;7.078;2022-08-11T14:44:50;492.17;;;471.17;;
11100;SDS011;5604;50.722;7.078;2022-08-11T14:47:44;485.37;;;464.30;;
11100;SDS011;5604;50.722;7.078;2022-08-11T14:50:15;483.20;;;462.20;;
11100;SDS011;5604;50.722;7.078;2022-08-11T14:52:49;495.80;;;474.10;;
11100;SDS011;5604;50.722;7.078;2022-08-11T14:55:18;491.33;;;470.10;;
11100;SDS011;5604;50.722;7.078;2022-08-11T14:58:04;480.57;;;459.60;;
11100;SDS011;5604;50.722;7.078;2022-08-11T15:00:36;490.10;;;469.00;;
11100;SDS011;5604;50.722;7.078;2022-08-11T15:03:07;484.47;;;463.70;;
11100;SDS011;5604;50.722;7.078;2022-08-11T15:05:45;493.47;;;472.07;;
11100;SDS011;5604;50.722;7.078;2022-08-11T15:08:27;493.30;;;471.93;;
11100;SDS011;5604;50.722;7.078;2022-08-11T15:11:15;481.03;;;460.17;;
11100;SDS011;5604;50.722;7.078;2022-08-11T15:14:02;480.30;;;459.80;;
11100;SDS011;5604;50.722;7.078;2022-08-11T15:16:32;503.60;;;481.50;;
11100;SDS011;5604;50.722;7.078;2022-08-11T15:19:19;485.47;;;464.37;;
11100;SDS011;5604;50.722;7.078;2022-08-11T15:21:48;495.97;;;474.00;;
11100;SDS011;5604;50.722;7.078;2022-08-11T15:24:34;481.20;;;460.70;;
11100;SDS011;5604;50.722;7.078;2022-08-11T15:27:04;495.63;;;474.00;;
11100;SDS011;5604;50.722;7.078;2022-08-11T15:29:52;484.73;;;463.87;;
11100;SDS011;5604;50.722;7.078;2022-08-11T15:32:59;475.33;;;454.57;;
11100;SDS011;5604;50.722;7.078;2022-08-11T15:35:49;484.07;;;463.20;;
11100;SDS011;5604;50.722;7.078;2022-08-11T15:38:35;498.47;;;476.97;;
11100;SDS011;5604;50.722;7.078;2022-08-11T15:41:08;495.40;;;473.37;;
11100;SDS011;5604;50.722;7.078;2022-08-11T15:43:58;482.43;;;461.13;;
11100;SDS011;5604;50.722;7.078;2022-08-11T15:46:46;497.47;;;475.83;;
11100;SDS011;5604;50.722;7.078;2022-08-11T15:49:21;486.03;;;464.93;;
11100;SDS011;5604;50.722;7.078;2022-08-11T15:52:12;491.07;;;469.83;;
11100;SDS011;5604;50.722;7.078;2022-08-11T15:54:44;496.07;;;474.53;;
11100;SDS011;5604;50.722;7.078;2022-08-11T15:57:14;499.97;;;478.37;;
11100;SDS011;5604;50.722;7.078;2022-08-11T16:00:06;490.50;;;469.27;;
11100;SDS011;5604;50.722;7.078;2022-08-11T16:02:53;492.73;;;471.37;;
11100;SDS011;5604;50.722;7.078;2022-08-11T16:05:42;487.47;;;466.20;;
11100;SDS011;5604;50.722;7.078;2022-08-11T16:08:20;498.87;;;477.20;;
11100;SDS011;5604;50.722;7.078;2022-08-11T16:11:02;491.33;;;469.97;;
11100;SDS011;5604;50.722;7.078;2022-08-11T16:13:35;490.27;;;468.63;;
11100;SDS011;5604;50.722;7.078;2022-08-11T16:16:22;481.13;;;460.40;;
11100;SDS011;5604;50.722;7.078;2022-08-11T16:18:51;486.60;;;465.43;;